sensor_id;sensor_type;location;lat;lon;timestamp;pressure;altitude;pressure_sealevel;temperature
74539;BMP180;66042;51.090;-115.340;2023-04-25T00:02:24;86246.00;;;13.02
74539;BMP180;66042;51.090;-115.340;2023-04-25T00:04:51;86246.80;;;12.84
74539;BMP180;66042;51.090;-115.340;2023-04-25T00:07:18;86249.60;;;12.60
74539;BMP180;66042;51.090;-115.340;2023-04-25T00:09:46;86252.60;;;12.50
74539;BMP180;66042;51.090;-115.340;2023-04-25T00:12:13;86252.40;;;12.40
74539;BMP180;66042;51.090;-115.340;2023-04-25T00:14:40;86256.00;;;12.30
74539;BMP180;66042;51.090;-115.340;2023-04-25T00:17:07;86264.60;;;12.20
74539;BMP180;66042;51.090;-115.340;2023-04-25T00:19:34;86266.00;;;12.10
74539;BMP180;66042;51.090;-115.340;2023-04-25T00:22:01;86270.40;;;12.00
74539;BMP180;66042;51.090;-115.340;2023-04-25T00:24:28;86269.60;;;12.00
74539;BMP180;66042;51.090;-115.340;2023-04-25T00:26:55;86275.00;;;11.90
74539;BMP180;66042;51.090;-115.340;2023-04-25T00:29:22;86275.40;;;11.90
74539;BMP180;66042;51.090;-115.340;2023-04-25T00:31:48;86272.60;;;12.00
74539;BMP180;66042;51.090;-115.340;2023-04-25T00:34:15;86272.40;;;12.00
74539;BMP180;66042;51.090;-115.340;2023-04-25T00:36:42;86281.00;;;12.00
74539;BMP180;66042;51.090;-115.340;2023-04-25T00:39:09;86277.00;;;11.90
74539;BMP180;66042;51.090;-115.340;2023-04-25T00:41:37;86285.20;;;11.70
74539;BMP180;66042;51.090;-115.340;2023-04-25T00:44:05;86284.60;;;11.56
74539;BMP180;66042;51.090;-115.340;2023-04-25T00:46:33;86285.40;;;11.40
74539;BMP180;66042;51.090;-115.340;2023-04-25T00:49:00;86286.80;;;11.20
74539;BMP180;66042;51.090;-115.340;2023-04-25T00:51:27;86288.40;;;11.10
74539;BMP180;66042;51.090;-115.340;2023-04-25T00:53:54;86281.40;;;11.20
74539;BMP180;66042;51.090;-115.340;2023-04-25T00:56:22;86282.20;;;11.30
74539;BMP180;66042;51.090;-115.340;2023-04-25T00:58:51;86280.40;;;11.20
74539;BMP180;66042;51.090;-115.340;2023-04-25T01:01:20;86278.60;;;11.06
74539;BMP180;66042;51.090;-115.340;2023-04-25T01:03:49;86284.00;;;10.92
74539;BMP180;66042;51.090;-115.340;2023-04-25T01:06:17;86285.00;;;10.90
74539;BMP180;66042;51.090;-115.340;2023-04-25T01:08:44;86281.40;;;10.90
74539;BMP180;66042;51.090;-115.340;2023-04-25T01:11:11;86285.80;;;10.90
74539;BMP180;66042;51.090;-115.340;2023-04-25T01:13:38;86289.20;;;10.90
74539;BMP180;66042;51.090;-115.340;2023-04-25T01:16:06;86289.60;;;10.88
74539;BMP180;66042;51.090;-115.340;2023-04-25T01:18:33;86291.60;;;10.80
74539;BMP180;66042;51.090;-115.340;2023-04-25T01:21:11;86295.00;;;10.80
74539;BMP180;66042;51.090;-115.340;2023-04-25T01:23:42;86295.80;;;10.80
74539;BMP180;66042;51.090;-115.340;2023-04-25T01:26:11;86293.20;;;10.70
74539;BMP180;66042;51.090;-115.340;2023-04-25T01:28:40;86296.00;;;10.60
74539;BMP180;66042;51.090;-115.340;2023-04-25T01:31:11;86293.40;;;10.54
74539;BMP180;66042;51.090;-115.340;2023-04-25T01:33:39;86293.80;;;10.50
74539;BMP180;66042;51.090;-115.340;2023-04-25T01:36:07;86292.60;;;10.50
74539;BMP180;66042;51.090;-115.340;2023-04-25T01:38:34;86289.40;;;10.50
74539;BMP180;66042;51.090;-115.340;2023-04-25T01:41:02;86291.40;;;10.50
74539;BMP180;66042;51.090;-115.340;2023-04-25T01:43:29;86297.20;;;10.50
74539;BMP180;66042;51.090;-115.340;2023-04-25T01:45:57;86293.40;;;10.40
74539;BMP180;66042;51.090;-115.340;2023-04-25T01:48:24;86296.20;;;10.40
74539;BMP180;66042;51.090;-115.340;2023-04-25T01:50:51;86297.20;;;10.44
74539;BMP180;66042;51.090;-115.340;2023-04-25T01:53:18;86298.00;;;10.40
74539;BMP180;66042;51.090;-115.340;2023-04-25T01:55:45;86297.20;;;10.40
74539;BMP180;66042;51.090;-115.340;2023-04-25T01:58:12;86294.80;;;10.30
74539;BMP180;66042;51.090;-115.340;2023-04-25T02:00:40;86296.20;;;10.30
74539;BMP180;66042;51.090;-115.340;2023-04-25T02:03:07;86303.60;;;10.30
74539;BMP180;66042;51.090;-115.340;2023-04-25T02:05:38;86307.40;;;10.30
74539;BMP180;66042;51.090;-115.340;2023-04-25T02:08:07;86308.60;;;10.30
74539;BMP180;66042;51.090;-115.340;2023-04-25T02:10:35;86309.60;;;10.20
74539;BMP180;66042;51.090;-115.340;2023-04-25T02:13:02;86310.40;;;10.20
74539;BMP180;66042;51.090;-115.340;2023-04-25T02:15:31;86312.20;;;10.20
74539;BMP180;66042;51.090;-115.340;2023-04-25T02:17:59;86310.00;;;10.10
74539;BMP180;66042;51.090;-115.340;2023-04-25T02:20:30;86312.00;;;10.10
74539;BMP180;66042;51.090;-115.340;2023-04-25T02:22:57;86317.40;;;10.00
74539;BMP180;66042;51.090;-115.340;2023-04-25T02:25:25;86321.80;;;10.00
74539;BMP180;66042;51.090;-115.340;2023-04-25T02:27:52;86324.40;;;9.90
74539;BMP180;66042;51.090;-115.340;2023-04-25T02:30:19;86325.40;;;9.90
74539;BMP180;66042;51.090;-115.340;2023-04-25T02:32:47;86324.80;;;9.80
74539;BMP180;66042;51.090;-115.340;2023-04-25T02:35:14;86324.40;;;9.80
74539;BMP180;66042;51.090;-115.340;2023-04-25T02:37:42;86324.40;;;9.80
74539;BMP180;66042;51.090;-115.340;2023-04-25T02:40:10;86325.40;;;9.70
74539;BMP180;66042;51.090;-115.340;2023-04-25T02:42:37;86329.20;;;9.70
74539;BMP180;66042;51.090;-115.340;2023-04-25T02:45:05;86334.40;;;9.60
74539;BMP180;66042;51.090;-115.340;2023-04-25T02:47:32;86342.80;;;9.60
74539;BMP180;66042;51.090;-115.340;2023-04-25T02:49:59;86343.80;;;9.50
74539;BMP180;66042;51.090;-115.340;2023-04-25T02:52:26;86348.20;;;9.50
74539;BMP180;66042;51.090;-115.340;2023-04-25T02:54:52;86351.20;;;9.42
74539;BMP180;66042;51.090;-115.340;2023-04-25T02:57:19;86350.00;;;9.38
74539;BMP180;66042;51.090;-115.340;2023-04-25T02:59:46;86354.00;;;9.30
74539;BMP180;66042;51.090;-115.340;2023-04-25T03:02:14;86352.00;;;9.20
74539;BMP180;66042;51.090;-115.340;2023-04-25T03:04:41;86357.40;;;9.14
74539;BMP180;66042;51.090;-115.340;2023-04-25T03:07:09;86363.60;;;9.10
74539;BMP180;66042;51.090;-115.340;2023-04-25T03:09:37;86364.80;;;9.00
74539;BMP180;66042;51.090;-115.340;2023-04-25T03:12:04;86368.60;;;8.98
74539;BMP180;66042;51.090;-115.340;2023-04-25T03:14:31;86370.80;;;8.90
74539;BMP180;66042;51.090;-115.340;2023-04-25T03:16:58;86372.80;;;8.80
74539;BMP180;66042;51.090;-115.340;2023-04-25T03:19:25;86374.40;;;8.72
74539;BMP180;66042;51.090;-115.340;2023-04-25T03:21:52;86378.80;;;8.70
74539;BMP180;66042;51.090;-115.340;2023-04-25T03:24:20;86383.20;;;8.60
74539;BMP180;66042;51.090;-115.340;2023-04-25T03:26:47;86382.40;;;8.60
74539;BMP180;66042;51.090;-115.340;2023-04-25T03:29:14;86383.40;;;8.50
74539;BMP180;66042;51.090;-115.340;2023-04-25T03:31:41;86395.40;;;8.40
74539;BMP180;66042;51.090;-115.340;2023-04-25T03:34:08;86393.00;;;8.30
74539;BMP180;66042;51.090;-115.340;2023-04-25T03:36:35;86393.00;;;8.28
74539;BMP180;66042;51.090;-115.340;2023-04-25T03:39:02;86396.40;;;8.20
74539;BMP180;66042;51.090;-115.340;2023-04-25T03:41:29;86398.00;;;8.14
74539;BMP180;66042;51.090;-115.340;2023-04-25T03:43:56;86402.20;;;8.10
74539;BMP180;66042;51.090;-115.340;2023-04-25T03:46:23;86401.80;;;8.00
74539;BMP180;66042;51.090;-115.340;2023-04-25T03:48:50;86399.00;;;7.96
74539;BMP180;66042;51.090;-115.340;2023-04-25T03:51:17;86397.60;;;7.90
74539;BMP180;66042;51.090;-115.340;2023-04-25T03:53:44;86398.60;;;7.80
74539;BMP180;66042;51.090;-115.340;2023-04-25T03:56:11;86392.60;;;7.78
74539;BMP180;66042;51.090;-115.340;2023-04-25T03:58:38;86398.80;;;7.70
74539;BMP180;66042;51.090;-115.340;2023-04-25T04:01:05;86402.00;;;7.60
74539;BMP180;66042;51.090;-115.340;2023-04-25T04:03:35;86404.60;;;7.60
74539;BMP180;66042;51.090;-115.340;2023-04-25T04:06:04;86401.40;;;7.50
74539;BMP180;66042;51.090;-115.340;2023-04-25T04:08:33;86403.20;;;7.40
74539;BMP180;66042;51.090;-115.340;2023-04-25T04:10:59;86406.80;;;7.40
74539;BMP180;66042;51.090;-115.340;2023-04-25T04:13:28;86414.80;;;7.30
74539;BMP180;66042;51.090;-115.340;2023-04-25T04:15:55;86416.20;;;7.30
74539;BMP180;66042;51.090;-115.340;2023-04-25T04:18:22;86423.00;;;7.20
74539;BMP180;66042;51.090;-115.340;2023-04-25T04:20:49;86423.20;;;7.10
74539;BMP180;66042;51.090;-115.340;2023-04-25T04:23:16;86423.60;;;7.10
74539;BMP180;66042;51.090;-115.340;2023-04-25T04:25:43;86421.80;;;7.00
74539;BMP180;66042;51.090;-115.340;2023-04-25T04:28:10;86425.20;;;7.00
74539;BMP180;66042;51.090;-115.340;2023-04-25T04:30:38;86423.00;;;6.90
74539;BMP180;66042;51.090;-115.340;2023-04-25T04:33:05;86422.80;;;6.90
74539;BMP180;66042;51.090;-115.340;2023-04-25T04:35:33;86427.00;;;6.80
74539;BMP180;66042;51.090;-115.340;2023-04-25T04:38:01;86432.40;;;6.80
74539;BMP180;66042;51.090;-115.340;2023-04-25T04:40:28;86437.60;;;6.70
74539;BMP180;66042;51.090;-115.340;2023-04-25T04:42:58;86428.80;;;6.70
74539;BMP180;66042;51.090;-115.340;2023-04-25T04:45:25;86426.00;;;6.64
74539;BMP180;66042;51.090;-115.340;2023-04-25T04:47:54;86436.20;;;6.60
74539;BMP180;66042;51.090;-115.340;2023-04-25T04:50:21;86433.80;;;6.50
74539;BMP180;66042;51.090;-115.340;2023-04-25T04:52:49;86429.00;;;6.46
74539;BMP180;66042;51.090;-115.340;2023-04-25T04:55:16;86431.00;;;6.40
74539;BMP180;66042;51.090;-115.340;2023-04-25T04:57:43;86435.80;;;6.30
74539;BMP180;66042;51.090;-115.340;2023-04-25T05:00:11;86433.20;;;6.20
74539;BMP180;66042;51.090;-115.340;2023-04-25T05:02:39;86431.80;;;6.20
74539;BMP180;66042;51.090;-115.340;2023-04-25T05:05:07;86433.00;;;6.14
74539;BMP180;66042;51.090;-115.340;2023-04-25T05:07:34;86436.00;;;6.10
74539;BMP180;66042;51.090;-115.340;2023-04-25T05:10:02;86433.80;;;6.10
74539;BMP180;66042;51.090;-115.340;2023-04-25T05:12:29;86429.80;;;6.16
74539;BMP180;66042;51.090;-115.340;2023-04-25T05:14:57;86438.20;;;6.20
74539;BMP180;66042;51.090;-115.340;2023-04-25T05:17:24;86440.40;;;6.20
74539;BMP180;66042;51.090;-115.340;2023-04-25T05:19:51;86438.40;;;6.20
74539;BMP180;66042;51.090;-115.340;2023-04-25T05:22:18;86438.40;;;6.20
74539;BMP180;66042;51.090;-115.340;2023-04-25T05:24:45;86436.40;;;6.20
74539;BMP180;66042;51.090;-115.340;2023-04-25T05:27:12;86429.20;;;6.20
74539;BMP180;66042;51.090;-115.340;2023-04-25T05:29:39;86436.20;;;6.10
74539;BMP180;66042;51.090;-115.340;2023-04-25T05:32:06;86435.60;;;6.02
74539;BMP180;66042;51.090;-115.340;2023-04-25T05:34:35;86437.20;;;6.00
74539;BMP180;66042;51.090;-115.340;2023-04-25T05:37:02;86439.20;;;6.00
74539;BMP180;66042;51.090;-115.340;2023-04-25T05:39:32;86434.60;;;5.94
74539;BMP180;66042;51.090;-115.340;2023-04-25T05:41:59;86435.20;;;5.94
74539;BMP180;66042;51.090;-115.340;2023-04-25T05:44:28;86430.40;;;5.90
74539;BMP180;66042;51.090;-115.340;2023-04-25T05:46:55;86432.00;;;5.90
74539;BMP180;66042;51.090;-115.340;2023-04-25T05:49:22;86432.20;;;5.90
74539;BMP180;66042;51.090;-115.340;2023-04-25T05:51:49;86439.40;;;5.82
74539;BMP180;66042;51.090;-115.340;2023-04-25T05:54:16;86435.60;;;5.80
74539;BMP180;66042;51.090;-115.340;2023-04-25T05:56:43;86441.00;;;5.70
74539;BMP180;66042;51.090;-115.340;2023-04-25T05:59:11;86443.20;;;5.70
74539;BMP180;66042;51.090;-115.340;2023-04-25T06:01:38;86441.00;;;5.70
74539;BMP180;66042;51.090;-115.340;2023-04-25T06:04:04;86439.80;;;5.60
74539;BMP180;66042;51.090;-115.340;2023-04-25T06:06:31;86437.40;;;5.60
74539;BMP180;66042;51.090;-115.340;2023-04-25T06:08:59;86445.80;;;5.60
74539;BMP180;66042;51.090;-115.340;2023-04-25T06:11:25;86448.80;;;5.50
74539;BMP180;66042;51.090;-115.340;2023-04-25T06:13:53;86446.80;;;5.50
74539;BMP180;66042;51.090;-115.340;2023-04-25T06:16:20;86450.80;;;5.40
74539;BMP180;66042;51.090;-115.340;2023-04-25T06:18:47;86448.20;;;5.32
74539;BMP180;66042;51.090;-115.340;2023-04-25T06:21:14;86452.80;;;5.30
74539;BMP180;66042;51.090;-115.340;2023-04-25T06:23:42;86453.20;;;5.30
74539;BMP180;66042;51.090;-115.340;2023-04-25T06:26:09;86453.00;;;5.30
74539;BMP180;66042;51.090;-115.340;2023-04-25T06:28:36;86453.40;;;5.30
74539;BMP180;66042;51.090;-115.340;2023-04-25T06:31:03;86460.80;;;5.30
74539;BMP180;66042;51.090;-115.340;2023-04-25T06:33:30;86460.60;;;5.30
74539;BMP180;66042;51.090;-115.340;2023-04-25T06:35:57;86456.00;;;5.24
74539;BMP180;66042;51.090;-115.340;2023-04-25T06:38:24;86464.40;;;5.20
74539;BMP180;66042;51.090;-115.340;2023-04-25T06:40:51;86467.60;;;5.20
74539;BMP180;66042;51.090;-115.340;2023-04-25T06:43:18;86467.00;;;5.10
74539;BMP180;66042;51.090;-115.340;2023-04-25T06:45:46;86465.40;;;5.10
74539;BMP180;66042;51.090;-115.340;2023-04-25T06:48:13;86467.60;;;5.10
74539;BMP180;66042;51.090;-115.340;2023-04-25T06:50:40;86475.60;;;5.00
74539;BMP180;66042;51.090;-115.340;2023-04-25T06:53:07;86475.60;;;5.00
74539;BMP180;66042;51.090;-115.340;2023-04-25T06:55:35;86473.20;;;5.00
74539;BMP180;66042;51.090;-115.340;2023-04-25T06:58:02;86477.00;;;5.00
74539;BMP180;66042;51.090;-115.340;2023-04-25T07:00:29;86479.60;;;4.90
74539;BMP180;66042;51.090;-115.340;2023-04-25T07:02:56;86482.00;;;4.80
74539;BMP180;66042;51.090;-115.340;2023-04-25T07:05:23;86491.40;;;4.80
74539;BMP180;66042;51.090;-115.340;2023-04-25T07:07:50;86499.00;;;4.82
74539;BMP180;66042;51.090;-115.340;2023-04-25T07:10:17;86496.60;;;4.84
74539;BMP180;66042;51.090;-115.340;2023-04-25T07:12:44;86500.80;;;4.88
74539;BMP180;66042;51.090;-115.340;2023-04-25T07:15:11;86490.40;;;4.90
74539;BMP180;66042;51.090;-115.340;2023-04-25T07:17:38;86491.20;;;4.90
74539;BMP180;66042;51.090;-115.340;2023-04-25T07:20:06;86492.80;;;4.90
74539;BMP180;66042;51.090;-115.340;2023-04-25T07:22:34;86490.60;;;4.90
74539;BMP180;66042;51.090;-115.340;2023-04-25T07:25:01;86490.60;;;5.00
74539;BMP180;66042;51.090;-115.340;2023-04-25T07:27:29;86497.00;;;5.00
74539;BMP180;66042;51.090;-115.340;2023-04-25T07:29:56;86491.60;;;5.00
74539;BMP180;66042;51.090;-115.340;2023-04-25T07:32:24;86482.80;;;5.00
74539;BMP180;66042;51.090;-115.340;2023-04-25T07:34:52;86487.20;;;5.00
74539;BMP180;66042;51.090;-115.340;2023-04-25T07:37:19;86491.80;;;5.00
74539;BMP180;66042;51.090;-115.340;2023-04-25T07:39:46;86492.20;;;5.00
74539;BMP180;66042;51.090;-115.340;2023-04-25T07:42:14;86494.60;;;5.00
74539;BMP180;66042;51.090;-115.340;2023-04-25T07:44:41;86498.40;;;4.90
74539;BMP180;66042;51.090;-115.340;2023-04-25T07:47:09;86496.80;;;4.90
74539;BMP180;66042;51.090;-115.340;2023-04-25T07:49:37;86485.40;;;4.90
74539;BMP180;66042;51.090;-115.340;2023-04-25T07:52:05;86493.80;;;4.90
74539;BMP180;66042;51.090;-115.340;2023-04-25T07:54:32;86503.40;;;4.88
74539;BMP180;66042;51.090;-115.340;2023-04-25T07:56:59;86486.40;;;4.78
74539;BMP180;66042;51.090;-115.340;2023-04-25T07:59:26;86489.60;;;4.72
74539;BMP180;66042;51.090;-115.340;2023-04-25T08:01:53;86493.80;;;4.70
74539;BMP180;66042;51.090;-115.340;2023-04-25T08:04:20;86501.60;;;4.70
74539;BMP180;66042;51.090;-115.340;2023-04-25T08:06:48;86503.20;;;4.70
74539;BMP180;66042;51.090;-115.340;2023-04-25T08:09:15;86500.20;;;4.80
74539;BMP180;66042;51.090;-115.340;2023-04-25T08:11:42;86500.00;;;4.80
74539;BMP180;66042;51.090;-115.340;2023-04-25T08:14:09;86503.40;;;4.80
74539;BMP180;66042;51.090;-115.340;2023-04-25T08:16:36;86490.00;;;4.70
74539;BMP180;66042;51.090;-115.340;2023-04-25T08:19:03;86478.40;;;4.70
74539;BMP180;66042;51.090;-115.340;2023-04-25T08:21:31;86502.60;;;4.70
74539;BMP180;66042;51.090;-115.340;2023-04-25T08:23:59;86506.20;;;4.70
74539;BMP180;66042;51.090;-115.340;2023-04-25T08:26:28;86497.00;;;4.70
74539;BMP180;66042;51.090;-115.340;2023-04-25T08:28:55;86493.60;;;4.70
74539;BMP180;66042;51.090;-115.340;2023-04-25T08:31:22;86491.20;;;4.70
74539;BMP180;66042;51.090;-115.340;2023-04-25T08:33:49;86498.60;;;4.70
74539;BMP180;66042;51.090;-115.340;2023-04-25T08:36:18;86501.20;;;4.64
74539;BMP180;66042;51.090;-115.340;2023-04-25T08:38:45;86503.40;;;4.60
74539;BMP180;66042;51.090;-115.340;2023-04-25T08:41:13;86507.60;;;4.60
74539;BMP180;66042;51.090;-115.340;2023-04-25T08:43:42;86501.80;;;4.60
74539;BMP180;66042;51.090;-115.340;2023-04-25T08:46:14;86499.20;;;4.60
74539;BMP180;66042;51.090;-115.340;2023-04-25T08:48:45;86490.40;;;4.56
74539;BMP180;66042;51.090;-115.340;2023-04-25T08:51:27;86487.00;;;4.54
74539;BMP180;66042;51.090;-115.340;2023-04-25T08:54:09;86485.00;;;4.60
74539;BMP180;66042;51.090;-115.340;2023-04-25T08:56:44;86489.20;;;4.60
74539;BMP180;66042;51.090;-115.340;2023-04-25T08:59:12;86491.40;;;4.60
74539;BMP180;66042;51.090;-115.340;2023-04-25T09:01:39;86496.40;;;4.60
74539;BMP180;66042;51.090;-115.340;2023-04-25T09:04:06;86497.80;;;4.60
74539;BMP180;66042;51.090;-115.340;2023-04-25T09:06:34;86505.00;;;4.60
74539;BMP180;66042;51.090;-115.340;2023-04-25T09:09:07;86495.40;;;4.50
74539;BMP180;66042;51.090;-115.340;2023-04-25T09:11:36;86492.80;;;4.50
74539;BMP180;66042;51.090;-115.340;2023-04-25T09:14:17;86480.00;;;4.50
74539;BMP180;66042;51.090;-115.340;2023-04-25T09:17:00;86465.40;;;4.50
74539;BMP180;66042;51.090;-115.340;2023-04-25T09:19:32;86481.80;;;4.40
74539;BMP180;66042;51.090;-115.340;2023-04-25T09:22:05;86465.00;;;4.30
74539;BMP180;66042;51.090;-115.340;2023-04-25T09:27:07;86473.60;;;4.30
74539;BMP180;66042;51.090;-115.340;2023-04-25T09:29:37;86471.40;;;4.30
74539;BMP180;66042;51.090;-115.340;2023-04-25T09:32:22;86462.40;;;4.30
74539;BMP180;66042;51.090;-115.340;2023-04-25T09:34:53;86460.20;;;4.30
74539;BMP180;66042;51.090;-115.340;2023-04-25T09:37:26;86467.20;;;4.30
74539;BMP180;66042;51.090;-115.340;2023-04-25T09:39:59;86469.60;;;4.20
74539;BMP180;66042;51.090;-115.340;2023-04-25T09:42:29;86472.00;;;4.20
74539;BMP180;66042;51.090;-115.340;2023-04-25T09:45:00;86470.60;;;4.20
74539;BMP180;66042;51.090;-115.340;2023-04-25T09:47:30;86468.60;;;4.20
74539;BMP180;66042;51.090;-115.340;2023-04-25T09:49:57;86467.60;;;4.20
74539;BMP180;66042;51.090;-115.340;2023-04-25T09:52:25;86474.20;;;4.14
74539;BMP180;66042;51.090;-115.340;2023-04-25T09:54:53;86469.60;;;4.10
74539;BMP180;66042;51.090;-115.340;2023-04-25T09:57:25;86464.00;;;4.10
74539;BMP180;66042;51.090;-115.340;2023-04-25T09:59:54;86463.20;;;4.18
74539;BMP180;66042;51.090;-115.340;2023-04-25T10:02:25;86475.80;;;4.18
74539;BMP180;66042;51.090;-115.340;2023-04-25T10:04:54;86462.80;;;4.10
74539;BMP180;66042;51.090;-115.340;2023-04-25T10:07:25;86474.60;;;4.10
74539;BMP180;66042;51.090;-115.340;2023-04-25T10:10:03;86471.60;;;4.08
74539;BMP180;66042;51.090;-115.340;2023-04-25T10:12:32;86470.80;;;4.10
74539;BMP180;66042;51.090;-115.340;2023-04-25T10:15:01;86477.00;;;4.00
74539;BMP180;66042;51.090;-115.340;2023-04-25T10:17:31;86468.80;;;4.00
74539;BMP180;66042;51.090;-115.340;2023-04-25T10:20:02;86471.80;;;4.00
74539;BMP180;66042;51.090;-115.340;2023-04-25T10:22:42;86474.60;;;3.90
74539;BMP180;66042;51.090;-115.340;2023-04-25T10:25:11;86482.60;;;3.80
74539;BMP180;66042;51.090;-115.340;2023-04-25T10:27:39;86479.80;;;3.70
74539;BMP180;66042;51.090;-115.340;2023-04-25T10:30:13;86479.00;;;3.70
74539;BMP180;66042;51.090;-115.340;2023-04-25T10:32:45;86482.40;;;3.70
74539;BMP180;66042;51.090;-115.340;2023-04-25T10:35:26;86477.40;;;3.70
74539;BMP180;66042;51.090;-115.340;2023-04-25T10:38:00;86464.60;;;3.62
74539;BMP180;66042;51.090;-115.340;2023-04-25T10:40:31;86471.20;;;3.60
74539;BMP180;66042;51.090;-115.340;2023-04-25T10:46:26;86471.80;;;3.40
74539;BMP180;66042;51.090;-115.340;2023-04-25T10:48:54;86470.40;;;3.38
74539;BMP180;66042;51.090;-115.340;2023-04-25T10:51:27;86470.00;;;3.30
74539;BMP180;66042;51.090;-115.340;2023-04-25T10:54:08;86471.40;;;3.30
74539;BMP180;66042;51.090;-115.340;2023-04-25T10:56:39;86466.80;;;3.30
74539;BMP180;66042;51.090;-115.340;2023-04-25T10:59:17;86474.00;;;3.30
74539;BMP180;66042;51.090;-115.340;2023-04-25T11:01:47;86459.60;;;3.20
74539;BMP180;66042;51.090;-115.340;2023-04-25T11:04:32;86465.00;;;3.28
74539;BMP180;66042;51.090;-115.340;2023-04-25T11:10:33;86469.80;;;3.30
74539;BMP180;66042;51.090;-115.340;2023-04-25T11:13:04;86469.80;;;3.30
74539;BMP180;66042;51.090;-115.340;2023-04-25T11:15:31;86472.00;;;3.36
74539;BMP180;66042;51.090;-115.340;2023-04-25T11:17:58;86480.00;;;3.30
74539;BMP180;66042;51.090;-115.340;2023-04-25T11:20:26;86476.20;;;3.32
74539;BMP180;66042;51.090;-115.340;2023-04-25T11:22:58;86471.00;;;3.34
74539;BMP180;66042;51.090;-115.340;2023-04-25T11:25:26;86462.60;;;3.32
74539;BMP180;66042;51.090;-115.340;2023-04-25T11:27:57;86463.60;;;3.40
74539;BMP180;66042;51.090;-115.340;2023-04-25T11:30:27;86465.80;;;3.40
74539;BMP180;66042;51.090;-115.340;2023-04-25T11:32:56;86469.00;;;3.36
74539;BMP180;66042;51.090;-115.340;2023-04-25T11:35:23;86464.00;;;3.30
74539;BMP180;66042;51.090;-115.340;2023-04-25T11:37:52;86453.80;;;3.30
74539;BMP180;66042;51.090;-115.340;2023-04-25T11:40:19;86453.60;;;3.20
74539;BMP180;66042;51.090;-115.340;2023-04-25T11:42:47;86458.60;;;3.14
74539;BMP180;66042;51.090;-115.340;2023-04-25T11:45:15;86453.00;;;3.10
74539;BMP180;66042;51.090;-115.340;2023-04-25T11:47:41;86460.20;;;3.10
74539;BMP180;66042;51.090;-115.340;2023-04-25T11:50:09;86463.00;;;3.10
74539;BMP180;66042;51.090;-115.340;2023-04-25T11:52:43;86457.80;;;3.00
74539;BMP180;66042;51.090;-115.340;2023-04-25T11:55:15;86446.40;;;3.00
74539;BMP180;66042;51.090;-115.340;2023-04-25T11:57:45;86439.00;;;3.00
74539;BMP180;66042;51.090;-115.340;2023-04-25T12:00:19;86453.60;;;2.90
74539;BMP180;66042;51.090;-115.340;2023-04-25T12:02:51;86450.20;;;2.88
74539;BMP180;66042;51.090;-115.340;2023-04-25T12:05:19;86457.00;;;2.80
74539;BMP180;66042;51.090;-115.340;2023-04-25T12:07:47;86467.40;;;2.80
74539;BMP180;66042;51.090;-115.340;2023-04-25T12:10:17;86466.60;;;2.80
74539;BMP180;66042;51.090;-115.340;2023-04-25T12:12:47;86459.80;;;2.80
74539;BMP180;66042;51.090;-115.340;2023-04-25T12:15:23;86453.80;;;2.72
74539;BMP180;66042;51.090;-115.340;2023-04-25T12:17:53;86454.60;;;2.80
74539;BMP180;66042;51.090;-115.340;2023-04-25T12:20:24;86470.40;;;2.80
74539;BMP180;66042;51.090;-115.340;2023-04-25T12:22:53;86472.20;;;2.78
74539;BMP180;66042;51.090;-115.340;2023-04-25T12:25:40;86470.20;;;2.80
74539;BMP180;66042;51.090;-115.340;2023-04-25T12:28:23;86468.80;;;2.78
74539;BMP180;66042;51.090;-115.340;2023-04-25T12:31:05;86463.00;;;2.70
74539;BMP180;66042;51.090;-115.340;2023-04-25T12:33:35;86478.60;;;2.70
74539;BMP180;66042;51.090;-115.340;2023-04-25T12:36:06;86478.00;;;2.70
74539;BMP180;66042;51.090;-115.340;2023-04-25T12:38:42;86473.40;;;2.70
74539;BMP180;66042;51.090;-115.340;2023-04-25T12:41:09;86466.40;;;2.70
74539;BMP180;66042;51.090;-115.340;2023-04-25T12:43:36;86467.00;;;2.80
74539;BMP180;66042;51.090;-115.340;2023-04-25T12:46:03;86474.40;;;2.80
74539;BMP180;66042;51.090;-115.340;2023-04-25T12:48:30;86477.40;;;2.80
74539;BMP180;66042;51.090;-115.340;2023-04-25T12:50:57;86480.60;;;2.80
74539;BMP180;66042;51.090;-115.340;2023-04-25T12:53:25;86477.60;;;2.80
74539;BMP180;66042;51.090;-115.340;2023-04-25T12:55:52;86480.60;;;2.80
74539;BMP180;66042;51.090;-115.340;2023-04-25T12:58:20;86472.00;;;2.82
74539;BMP180;66042;51.090;-115.340;2023-04-25T13:00:47;86474.80;;;2.86
74539;BMP180;66042;51.090;-115.340;2023-04-25T13:03:16;86481.60;;;2.90
74539;BMP180;66042;51.090;-115.340;2023-04-25T13:05:44;86478.20;;;2.90
74539;BMP180;66042;51.090;-115.340;2023-04-25T13:08:11;86482.80;;;2.90
74539;BMP180;66042;51.090;-115.340;2023-04-25T13:10:38;86477.20;;;2.90
74539;BMP180;66042;51.090;-115.340;2023-04-25T13:13:05;86472.20;;;2.98
74539;BMP180;66042;51.090;-115.340;2023-04-25T13:15:32;86471.40;;;3.00
74539;BMP180;66042;51.090;-115.340;2023-04-25T13:18:00;86468.00;;;3.00
74539;BMP180;66042;51.090;-115.340;2023-04-25T13:20:26;86472.00;;;3.00
74539;BMP180;66042;51.090;-115.340;2023-04-25T13:22:53;86467.60;;;3.10
74539;BMP180;66042;51.090;-115.340;2023-04-25T13:25:20;86468.40;;;3.10
74539;BMP180;66042;51.090;-115.340;2023-04-25T13:27:48;86471.80;;;3.20
74539;BMP180;66042;51.090;-115.340;2023-04-25T13:30:15;86476.00;;;3.20
74539;BMP180;66042;51.090;-115.340;2023-04-25T13:32:43;86473.60;;;3.30
74539;BMP180;66042;51.090;-115.340;2023-04-25T13:35:12;86473.00;;;3.30
74539;BMP180;66042;51.090;-115.340;2023-04-25T13:37:40;86477.80;;;3.32
74539;BMP180;66042;51.090;-115.340;2023-04-25T13:40:10;86480.00;;;3.40
74539;BMP180;66042;51.090;-115.340;2023-04-25T13:42:38;86476.40;;;3.40
74539;BMP180;66042;51.090;-115.340;2023-04-25T13:45:07;86471.40;;;3.50
74539;BMP180;66042;51.090;-115.340;2023-04-25T13:47:35;86470.20;;;3.50
74539;BMP180;66042;51.090;-115.340;2023-04-25T13:50:03;86471.20;;;3.60
74539;BMP180;66042;51.090;-115.340;2023-04-25T13:52:30;86461.20;;;3.60
74539;BMP180;66042;51.090;-115.340;2023-04-25T13:54:57;86466.40;;;3.70
74539;BMP180;66042;51.090;-115.340;2023-04-25T13:57:24;86467.60;;;3.70
74539;BMP180;66042;51.090;-115.340;2023-04-25T13:59:52;86475.20;;;3.80